Departure
Kulusuk Airport
Kulusuk, GL
cloud Weather
- Wind
- 230° / 8 kt
- Visibility
- -
- Ceiling
- CLR
- Temp / Dew
- 8°C / -4°C
- Altimeter
- 29.68 inHg
Obs: 2026-09-06T12:20:00.000Z
Raw METAR
METAR BGKK 061220Z AUTO 23008KT 9999NDV NCD 08/M04 Q1005
route Route
Departure
Kulusuk, GL
Obs: 2026-09-06T12:20:00.000Z
METAR BGKK 061220Z AUTO 23008KT 9999NDV NCD 08/M04 Q1005
Arrival
Reykjavík, IS
Obs: 2026-09-06T12:30:00.000Z
METAR BIKF 061230Z 36011KT CAVOK 10/06 Q1001 TAF BIKF 061055Z 0612/0712 03010KT 9999 SCT050 TX13/0616Z TN07/0701Z BECMG 0613/0615 35015KT BECMG 0616/0618 35015G28KT BECMG 0701/0703 01022G38KT SCT020
| Airline | Flights shown |
|---|---|
| Icelandair | 28 |
| Air Greenland | 7 |
| Date | Flight | Aircraft | Takeoff | Landing | Duration | Arr Δ |
|---|---|---|---|---|---|---|
| 2026-07-25 | ICE102 | 4CC330 | Jul 25, 21:35 UTC | Jul 25, 21:55 UTC | 20m | - |
| 2026-07-24 | ICE102 | 4CC4D2 | Jul 24, 20:45 UTC | Jul 24, 21:05 UTC | 20m | - |
| 2026-07-23 | ICE102 | 4CC4D2 | Jul 23, 21:35 UTC | Jul 23, 21:55 UTC | 20m | - |
| 2026-07-22 | ICE102 | 4CC4D2 | Jul 22, 21:20 UTC | Jul 22, 21:45 UTC | 25m | - |
| 2026-07-21 | ICE102 | 4CC330 | Jul 21, 22:25 UTC | Jul 21, 22:45 UTC | 20m | - |
| 2026-07-20 | ICE102 | 4CC4D2 | Jul 20, 20:45 UTC | Jul 20, 21:10 UTC | 25m | - |
| 2026-07-01 | GRL1720 | 459E4A | Jul 1, 12:35 UTC | Jul 1, 13:05 UTC | 30m | - |
| 2026-06-18 | ICE102 | 4CC4D1 | Jun 18, 20:20 UTC | Jun 18, 20:40 UTC | 20m | - |
| 2026-06-17 | ICE102 | 4CC331 | Jun 17, 20:25 UTC | Jun 17, 20:50 UTC | 25m | - |
| 2026-06-15 | ICE102 | 4CC4D1 | Jun 15, 20:34 UTC | Jun 15, 20:59 UTC | 25m | - |
| 2026-06-13 | ICE102 | 4CC330 | Jun 13, 21:30 UTC | Jun 13, 21:45 UTC | 15m | - |
| 2026-06-10 | ICE102 | 4CC331 | Jun 10, 20:55 UTC | Jun 10, 21:25 UTC | 30m | - |
| 2026-06-10 | GRL1720 | 459E50 | Jun 10, 12:50 UTC | Jun 10, 13:20 UTC | 30m | - |
| 2026-06-08 | ICE102 | 4CC4D1 | Jun 8, 20:50 UTC | Jun 8, 21:15 UTC | 25m | - |
| 2026-06-06 | ICE102 | 4CC331 | Jun 6, 22:10 UTC | Jun 6, 22:34 UTC | 25m | - |
| 2026-06-03 | ICE102 | 4CC330 | Jun 3, 21:50 UTC | Jun 3, 22:05 UTC | 15m | - |
| 2026-06-03 | GRL1720 | 459E50 | Jun 3, 12:55 UTC | Jun 3, 13:20 UTC | 25m | - |
| 2026-06-01 | ICE102 | 4CC4D1 | Jun 1, 20:50 UTC | Jun 1, 21:10 UTC | 20m | - |
| 2026-05-30 | ICE102 | 4CC330 | May 30, 14:50 UTC | May 30, 15:15 UTC | 25m | - |
| 2026-05-27 | ICE102 | 4CC330 | May 27, 14:05 UTC | May 27, 14:25 UTC | 20m | - |
| 2026-05-27 | GRL1720 | 459E4F | May 27, 12:30 UTC | May 27, 12:55 UTC | 25m | - |
| 2026-05-23 | ICE102 | 4CC330 | May 23, 14:25 UTC | May 23, 14:45 UTC | 20m | - |
| 2026-05-20 | ICE102 | 4CC330 | May 20, 14:05 UTC | May 20, 14:25 UTC | 20m | - |
| 2026-05-20 | GRL1720 | 459E4F | May 20, 12:35 UTC | May 20, 13:10 UTC | 35m | - |
| 2026-05-18 | ICE104 | 4CC331 | May 18, 18:10 UTC | May 18, 18:50 UTC | 39m | - |
| 2026-05-14 | ICE102 | 4CC331 | May 14, 15:50 UTC | May 14, 16:15 UTC | 25m | - |
| 2026-05-09 | ICE102 | 4CC330 | May 9, 15:00 UTC | May 9, 15:15 UTC | 15m | - |
| 2026-05-06 | ICE102 | 4CC330 | May 6, 14:25 UTC | May 6, 14:45 UTC | 20m | - |
| 2026-05-06 | GRL1720 | 459E4F | May 6, 12:30 UTC | May 6, 13:10 UTC | 40m | - |
| 2026-05-02 | ICE102 | 4CC330 | May 2, 14:15 UTC | May 2, 14:30 UTC | 15m | - |
| 2026-04-29 | ICE102 | 4CC330 | Apr 29, 15:30 UTC | Apr 29, 15:50 UTC | 20m | - |
| 2026-04-29 | GRL1720 | 459E4F | Apr 29, 13:35 UTC | Apr 29, 14:00 UTC | 25m | - |
| 2026-04-23 | ICE102 | 4CC331 | Apr 23, 18:00 UTC | Apr 23, 18:35 UTC | 35m | - |
| 2026-04-23 | ICE104 | 4CC330 | Apr 23, 16:20 UTC | Apr 23, 16:35 UTC | 15m | - |
| 2026-04-15 | ICE102 | 4CC331 | Apr 15, 21:05 UTC | Apr 15, 21:45 UTC | 40m | - |